Claypool, Arizona
Current Conditions -  °F | °C
As of 8:47 AM on Thursday 30 Oct 2014 (Local Time) from KIWA Reporting Station
Few Clouds Few Clouds  
Wind Chill: 70°   Ceiling: Unl
Heat Index: 70°   Visibility: 45mi
Dew Point: 43°   Wind: 3mph
Humidity: 38%   Direction: 140°SE
Pressure: 30.06"   Gusts: NA
Location:  33.41°N, 110.84°W
Report Text: KIWA 301547Z 14003KT 45SM FEW100 21/06 A3006
Loading
Personal Weather Stations






























Interactive Weather Map
Tropical Storm Tracking
New forecast layout! Learn more

10-Day Weather Forecast

Advertisements
Track Severe Weather on mobile